createdAt,value
2017-02-09T00:00:14.378Z,-0.44
2017-02-09T00:01:23.322Z,-0.37
2017-02-09T00:02:32.271Z,-0.37
2017-02-09T00:03:41.219Z,-0.36
2017-02-09T00:04:50.252Z,-0.4
2017-02-09T00:05:59.203Z,-0.43
2017-02-09T00:07:08.563Z,-0.37
2017-02-09T00:08:17.508Z,-0.39
2017-02-09T00:09:26.455Z,-0.37
2017-02-09T00:10:35.403Z,-0.36
2017-02-09T00:11:44.350Z,-0.34
2017-02-09T00:12:53.306Z,-0.37
2017-02-09T00:14:02.255Z,-0.36
2017-02-09T00:15:11.201Z,-0.4
2017-02-09T00:16:20.234Z,-0.4
2017-02-09T00:17:29.182Z,-0.37
2017-02-09T00:18:38.127Z,-0.46
2017-02-09T00:19:47.075Z,-0.57
2017-02-09T00:20:56.023Z,-0.57
2017-02-09T00:22:04.971Z,-0.46
2017-02-09T00:23:13.916Z,-0.51
2017-02-09T00:24:22.871Z,-0.49
2017-02-09T00:25:31.816Z,-0.54
2017-02-09T00:26:40.763Z,-0.6
2017-02-09T00:27:49.718Z,-0.49
2017-02-09T00:28:58.665Z,-0.57
2017-02-09T00:30:07.615Z,-0.6
2017-02-09T00:31:16.579Z,-0.61
2017-02-09T00:32:25.610Z,-0.52
2017-02-09T00:33:34.646Z,-0.58
2017-02-09T00:34:43.589Z,-0.62
2017-02-09T00:35:52.623Z,-0.52
2017-02-09T00:37:01.662Z,-0.6
2017-02-09T00:38:10.613Z,-0.49
2017-02-09T00:39:19.561Z,-0.57
2017-02-09T00:40:28.512Z,-0.57
2017-02-09T00:41:37.459Z,-0.55
2017-02-09T00:42:46.407Z,-0.54
2017-02-09T00:43:55.439Z,-0.58
2017-02-09T00:45:04.387Z,-0.57
2017-02-09T00:46:13.740Z,-0.49
2017-02-09T00:47:22.689Z,-0.47
2017-02-09T00:48:31.646Z,-0.47
2017-02-09T00:49:40.599Z,-0.47
2017-02-09T00:50:49.543Z,-0.47
2017-02-09T00:51:58.493Z,-0.47
2017-02-09T00:53:07.451Z,-0.44
2017-02-09T00:54:16.396Z,-0.43
2017-02-09T00:55:25.429Z,-0.44
2017-02-09T00:56:34.380Z,-0.47
2017-02-09T00:57:43.336Z,-0.47
2017-02-09T00:58:52.283Z,-0.49
2017-02-09T01:00:01.230Z,-0.47
2017-02-09T01:01:10.182Z,-0.55
2017-02-09T01:02:19.814Z,-0.49
2017-02-09T01:03:28.761Z,-0.46
2017-02-09T01:04:38.118Z,-0.44
2017-02-09T01:05:47.152Z,-0.49
2017-02-09T01:06:56.098Z,-0.57
2017-02-09T01:08:05.046Z,-0.47
2017-02-09T01:09:13.994Z,-0.54
2017-02-09T01:10:22.943Z,-0.54
2017-02-09T01:11:31.888Z,-0.6
2017-02-09T01:12:40.837Z,-0.55
2017-02-09T01:13:49.788Z,-0.54
2017-02-09T01:14:58.731Z,-0.52
2017-02-09T01:16:08.091Z,-0.49
2017-02-09T01:17:17.121Z,-0.58
2017-02-09T01:18:26.072Z,-0.57
2017-02-09T01:19:35.105Z,-0.7
2017-02-09T01:20:44.054Z,-0.64
2017-02-09T01:21:53.007Z,-0.67
2017-02-09T01:23:01.957Z,-0.67
2017-02-09T01:24:10.900Z,-0.73
2017-02-09T01:25:19.848Z,-0.82
2017-02-09T01:26:29.202Z,-0.78
2017-02-09T01:27:38.556Z,-0.82
2017-02-09T01:28:47.505Z,-0.85
2017-02-09T01:29:56.542Z,-0.85
2017-02-09T01:31:05.493Z,-0.98
2017-02-09T01:32:14.439Z,-0.89
2017-02-09T01:33:23.387Z,-0.89
2017-02-09T01:34:32.417Z,-0.85
2017-02-09T01:35:41.448Z,-0.85
2017-02-09T01:36:50.393Z,-0.8
2017-02-09T01:37:59.339Z,-0.83
2017-02-09T01:39:08.284Z,-0.83
2017-02-09T01:40:17.233Z,-0.91
2017-02-09T01:41:26.181Z,-0.83
2017-02-09T01:42:35.130Z,-0.82
2017-02-09T01:43:44.078Z,-0.76
2017-02-09T01:44:53.114Z,-0.73
2017-02-09T01:46:02.231Z,-0.8
2017-02-09T01:47:11.184Z,-0.7
2017-02-09T01:48:20.133Z,-0.69
2017-02-09T01:49:29.079Z,-0.75
2017-02-09T01:50:38.020Z,-0.72
2017-02-09T01:51:46.970Z,-0.72
2017-02-09T01:52:55.920Z,-0.73
2017-02-09T01:54:04.964Z,-0.69
2017-02-09T01:55:13.910Z,-0.57
2017-02-09T01:56:22.864Z,-0.6
2017-02-09T01:57:31.810Z,-0.52
2017-02-09T01:58:40.757Z,-0.55
2017-02-09T01:59:49.707Z,-0.54
2017-02-09T02:00:58.737Z,-0.69
2017-02-09T02:02:07.689Z,-0.72
2017-02-09T02:03:16.635Z,-0.67
2017-02-09T02:04:25.584Z,-0.64
2017-02-09T02:05:34.532Z,-0.6
2017-02-09T02:06:43.484Z,-0.55
2017-02-09T02:07:52.434Z,-0.47
2017-02-09T02:09:01.392Z,-0.57
2017-02-09T02:10:10.341Z,-0.54
2017-02-09T02:11:19.284Z,-0.69
2017-02-09T02:12:28.661Z,-0.6
2017-02-09T02:13:38.110Z,-0.64
2017-02-09T02:14:47.059Z,-0.64
2017-02-09T02:15:56.004Z,-0.62
2017-02-09T02:17:04.950Z,-0.7
2017-02-09T02:18:13.900Z,-0.7
2017-02-09T02:19:22.862Z,-0.65
2017-02-09T02:20:31.809Z,-0.69
2017-02-09T02:21:41.165Z,-0.67
2017-02-09T02:22:50.120Z,-0.65
2017-02-09T02:23:59.070Z,-0.72
2017-02-09T02:25:08.419Z,-0.69
2017-02-09T02:26:17.369Z,-0.67
2017-02-09T02:27:26.317Z,-0.73
2017-02-09T02:28:35.264Z,-0.82
2017-02-09T02:29:44.214Z,-0.82
2017-02-09T02:30:53.161Z,-0.78
2017-02-09T02:32:02.107Z,-0.8
2017-02-09T02:33:11.057Z,-0.72
2017-02-09T02:34:20.012Z,-0.73
2017-02-09T02:35:29.368Z,-0.76
2017-02-09T02:36:39.007Z,-0.73
2017-02-09T02:37:47.954Z,-0.79
2017-02-09T02:38:56.988Z,-0.79
2017-02-09T02:40:05.936Z,-0.82
2017-02-09T02:41:14.886Z,-0.89
2017-02-09T02:42:23.833Z,-0.86
2017-02-09T02:43:33.274Z,-0.94
2017-02-09T02:44:42.219Z,-1.1
2017-02-09T02:45:51.187Z,-1.12
2017-02-09T02:47:00.132Z,-1.04
2017-02-09T02:48:09.556Z,-1.04
2017-02-09T02:49:18.503Z,-1.05
2017-02-09T02:50:27.488Z,-1.12
2017-02-09T02:51:36.433Z,-1.04
2017-02-09T02:52:45.387Z,-1.05
2017-02-09T02:53:54.330Z,-1.07
2017-02-09T02:55:03.278Z,-1.05
2017-02-09T02:56:12.224Z,-1.09
2017-02-09T02:57:21.176Z,-1.07
2017-02-09T02:58:30.119Z,-1.04
2017-02-09T02:59:39.062Z,-1.01
2017-02-09T03:00:48.014Z,-1.02
2017-02-09T03:01:57.367Z,-0.99
2017-02-09T03:03:06.402Z,-1.07
2017-02-09T03:04:15.347Z,-1.13
2017-02-09T03:05:24.293Z,-1.04
2017-02-09T03:06:33.242Z,-0.98
2017-02-09T03:07:42.191Z,-0.98
2017-02-09T03:08:51.140Z,-1.05
2017-02-09T03:10:00.087Z,-0.99
2017-02-09T03:11:09.040Z,-0.98
2017-02-09T03:12:18.073Z,-0.98
2017-02-09T03:13:27.020Z,-1.04
2017-02-09T03:14:36.053Z,-1.02
2017-02-09T03:15:45.092Z,-1.09
2017-02-09T03:16:54.040Z,-1.07
2017-02-09T03:18:02.990Z,-1.02
2017-02-09T03:19:11.934Z,-1.01
2017-02-09T03:20:20.880Z,-0.99
2017-02-09T03:21:29.839Z,-0.98
2017-02-09T03:22:38.822Z,-0.92
2017-02-09T03:23:47.770Z,-0.97
2017-02-09T03:24:56.802Z,-1.04
2017-02-09T03:26:05.750Z,-1.05
2017-02-09T03:27:14.695Z,-1.22
2017-02-09T03:28:23.643Z,-1.16
2017-02-09T03:29:32.587Z,-1.2
2017-02-09T03:30:41.535Z,-1.33
2017-02-09T03:31:50.479Z,-1.31
2017-02-09T03:32:59.427Z,-1.33
2017-02-09T03:34:08.782Z,-1.31
2017-02-09T03:35:17.731Z,-1.3
2017-02-09T03:36:27.085Z,-1.27
2017-02-09T03:37:36.031Z,-1.3
2017-02-09T03:38:45.158Z,-1.3
2017-02-09T03:39:54.106Z,-1.31
2017-02-09T03:41:03.057Z,-1.27
2017-02-09T03:42:12.003Z,-1.19
2017-02-09T03:43:21.040Z,-1.15
2017-02-09T03:44:29.988Z,-1.3
2017-02-09T03:45:38.936Z,-1.25
2017-02-09T03:46:47.886Z,-1.4
2017-02-09T03:47:56.835Z,-1.38
2017-02-09T03:49:05.782Z,-1.38
2017-02-09T03:50:14.731Z,-1.37
2017-02-09T03:51:24.080Z,-1.28
2017-02-09T03:52:33.033Z,-1.28
2017-02-09T03:53:42.385Z,-1.22
2017-02-09T03:54:51.332Z,-1.22
2017-02-09T03:56:00.283Z,-1.17
2017-02-09T03:57:09.238Z,-1.17
2017-02-09T03:58:18.183Z,-1.17
2017-02-09T03:59:27.221Z,-1.15
2017-02-09T04:00:36.265Z,-1.09
2017-02-09T04:01:45.213Z,-1.09
2017-02-09T04:02:54.161Z,-1.1
2017-02-09T04:04:03.195Z,-1.15
2017-02-09T04:05:12.153Z,-1.19
2017-02-09T04:06:21.109Z,-1.22
2017-02-09T04:07:30.145Z,-1.22
2017-02-09T04:08:39.180Z,-1.25
2017-02-09T04:09:48.127Z,-1.1
2017-02-09T04:10:57.094Z,-1.22
2017-02-09T04:12:06.044Z,-1.19
2017-02-09T04:13:14.989Z,-1.12
2017-02-09T04:14:23.936Z,-1.05
2017-02-09T04:15:32.884Z,-1.04
2017-02-09T04:16:41.866Z,-1.07
2017-02-09T04:17:50.816Z,-1.07
2017-02-09T04:18:59.769Z,-1.02
2017-02-09T04:20:08.722Z,-1.17
2017-02-09T04:21:17.671Z,-1.17
2017-02-09T04:22:27.023Z,-1.1
2017-02-09T04:23:35.972Z,-1.02
2017-02-09T04:24:44.919Z,-1.02
2017-02-09T04:25:53.868Z,-1.04
2017-02-09T04:27:02.816Z,-0.97
2017-02-09T04:28:11.847Z,-0.99
2017-02-09T04:29:20.793Z,-1.12
2017-02-09T04:30:29.742Z,-1.16
2017-02-09T04:31:38.686Z,-1.13
2017-02-09T04:32:47.638Z,-1.13
2017-02-09T04:33:56.586Z,-1.04
2017-02-09T04:35:05.530Z,-1.1
2017-02-09T04:36:14.479Z,-1.05
2017-02-09T04:37:23.835Z,-1.02
2017-02-09T04:38:32.777Z,-1.04
2017-02-09T04:39:41.736Z,-1.04
2017-02-09T04:40:51.089Z,-1.09
2017-02-09T04:42:00.037Z,-1.12
2017-02-09T04:43:09.392Z,-1.12
2017-02-09T04:44:18.341Z,-1.15
2017-02-09T04:45:27.292Z,-1.09
2017-02-09T04:46:36.240Z,-1.13
2017-02-09T04:47:45.185Z,-1.1
2017-02-09T04:48:54.134Z,-1.17
2017-02-09T04:50:03.084Z,-1.23
2017-02-09T04:51:12.036Z,-1.19
2017-02-09T04:52:20.987Z,-1.19
2017-02-09T04:53:29.962Z,-1.15
2017-02-09T04:54:38.911Z,-1.15
2017-02-09T04:55:47.855Z,-1.22
2017-02-09T04:56:56.798Z,-1.19
2017-02-09T04:58:05.747Z,-1.17
2017-02-09T04:59:14.691Z,-1.16
2017-02-09T05:00:23.638Z,-1.09
2017-02-09T05:01:32.584Z,-1.04
2017-02-09T05:02:41.531Z,-1.04
2017-02-09T05:03:50.478Z,-1.15
2017-02-09T05:04:59.428Z,-1.22
2017-02-09T05:06:08.462Z,-1.19
2017-02-09T05:07:17.427Z,-1.22
2017-02-09T05:08:26.455Z,-1.19
2017-02-09T05:09:35.810Z,-1.4
2017-02-09T05:10:44.838Z,-1.3
2017-02-09T05:11:53.810Z,-1.3
2017-02-09T05:13:02.850Z,-1.37
2017-02-09T05:14:11.803Z,-1.31
2017-02-09T05:15:20.836Z,-1.35
2017-02-09T05:16:29.781Z,-1.31
2017-02-09T05:17:38.728Z,-1.43
2017-02-09T05:18:47.673Z,-1.33
2017-02-09T05:19:56.622Z,-1.35
2017-02-09T05:21:05.569Z,-1.34
2017-02-09T05:22:14.518Z,-1.38
2017-02-09T05:23:23.467Z,-1.51
2017-02-09T05:24:32.413Z,-1.55
2017-02-09T05:25:41.357Z,-1.55
2017-02-09T05:26:50.302Z,-1.56
2017-02-09T05:27:59.251Z,-1.56
2017-02-09T05:29:08.286Z,-1.67
2017-02-09T05:30:17.231Z,-1.62
2017-02-09T05:31:26.176Z,-1.69
2017-02-09T05:32:35.122Z,-1.7
2017-02-09T05:33:44.068Z,-1.69
2017-02-09T05:34:53.018Z,-1.77
2017-02-09T05:36:01.968Z,-1.8
2017-02-09T05:37:10.913Z,-1.77
2017-02-09T05:38:19.864Z,-1.79
2017-02-09T05:39:28.808Z,-1.74
2017-02-09T05:40:37.758Z,-1.66
2017-02-09T05:41:46.710Z,-1.74
2017-02-09T05:42:55.660Z,-1.66
2017-02-09T05:44:04.636Z,-1.61
2017-02-09T05:45:13.580Z,-1.52
2017-02-09T05:46:22.526Z,-1.56
2017-02-09T05:47:31.476Z,-1.55
2017-02-09T05:48:40.421Z,-1.56
2017-02-09T05:49:49.366Z,-1.54
2017-02-09T05:50:58.314Z,-1.41
2017-02-09T05:52:07.361Z,-1.35
2017-02-09T05:53:16.312Z,-1.28
2017-02-09T05:54:25.259Z,-1.33
2017-02-09T05:55:34.207Z,-1.27
2017-02-09T05:56:43.240Z,-1.3
2017-02-09T05:57:52.189Z,-1.25
2017-02-09T05:59:01.137Z,-1.17
2017-02-09T06:00:10.087Z,-1.17
2017-02-09T06:01:19.032Z,-1.22
2017-02-09T06:02:27.980Z,-1.16
2017-02-09T06:03:36.936Z,-1.23
2017-02-09T06:04:45.887Z,-1.27
2017-02-09T06:05:54.832Z,-1.27
2017-02-09T06:07:03.779Z,-1.3
2017-02-09T06:08:12.727Z,-1.28
2017-02-09T06:09:21.671Z,-1.23
2017-02-09T06:10:30.618Z,-1.17
2017-02-09T06:11:39.564Z,-1.22
2017-02-09T06:12:48.509Z,-1.22
2017-02-09T06:13:57.457Z,-1.2
2017-02-09T06:15:06.409Z,-1.23
2017-02-09T06:16:15.361Z,-1.25
2017-02-09T06:17:24.310Z,-1.19
2017-02-09T06:18:33.666Z,-1.2
2017-02-09T06:19:42.617Z,-1.17
2017-02-09T06:20:51.569Z,-1.16
2017-02-09T06:22:00.516Z,-1.17
2017-02-09T06:23:09.462Z,-1.19
2017-02-09T06:24:18.435Z,-1.19
2017-02-09T06:25:27.392Z,-1.27
2017-02-09T06:26:36.339Z,-1.22
2017-02-09T06:27:45.288Z,-1.31
2017-02-09T06:28:54.238Z,-1.38
2017-02-09T06:30:03.216Z,-1.34
2017-02-09T06:31:12.172Z,-1.49
2017-02-09T06:32:21.117Z,-1.41
2017-02-09T06:33:30.066Z,-1.46
2017-02-09T06:34:39.012Z,-1.4
2017-02-09T06:35:47.958Z,-1.38
2017-02-09T06:36:56.990Z,-1.37
2017-02-09T06:38:05.934Z,-1.33
2017-02-09T06:39:14.882Z,-1.31
2017-02-09T06:40:23.827Z,-1.27
2017-02-09T06:41:32.783Z,-1.22
2017-02-09T06:42:41.732Z,-1.27
2017-02-09T06:43:50.681Z,-1.15
2017-02-09T06:44:59.635Z,-1.09
2017-02-09T06:46:08.991Z,-1.02
2017-02-09T06:47:17.937Z,-0.98
2017-02-09T06:48:26.880Z,-0.98
2017-02-09T06:49:35.828Z,-0.97
2017-02-09T06:50:44.776Z,-0.99
2017-02-09T06:51:53.734Z,-0.99
2017-02-09T06:53:02.682Z,-1.01
2017-02-09T06:54:11.628Z,-1.04
2017-02-09T06:55:20.578Z,-0.98
2017-02-09T06:56:29.524Z,-0.98
2017-02-09T06:57:38.473Z,-1.02
2017-02-09T06:58:47.423Z,-0.97
2017-02-09T06:59:56.369Z,-0.99
2017-02-09T07:01:05.325Z,-0.94
2017-02-09T07:02:14.274Z,-0.97
2017-02-09T07:03:23.217Z,-0.98
2017-02-09T07:04:32.172Z,-0.98
2017-02-09T07:05:41.122Z,-0.98
2017-02-09T07:06:50.089Z,-0.94
2017-02-09T07:07:59.036Z,-0.91
2017-02-09T07:09:07.987Z,-0.89
2017-02-09T07:10:16.937Z,-0.95
2017-02-09T07:11:25.881Z,-0.91
2017-02-09T07:12:34.835Z,-0.91
2017-02-09T07:13:43.818Z,-0.83
2017-02-09T07:14:52.763Z,-0.83
2017-02-09T07:16:01.794Z,-0.89
2017-02-09T07:17:10.746Z,-0.79
2017-02-09T07:18:19.693Z,-0.89
2017-02-09T07:19:28.643Z,-0.89
2017-02-09T07:20:37.594Z,-0.91
2017-02-09T07:21:46.539Z,-0.83
2017-02-09T07:22:55.529Z,-0.83
2017-02-09T07:24:04.885Z,-0.89
2017-02-09T07:25:13.836Z,-0.99
2017-02-09T07:26:22.782Z,-1.01
2017-02-09T07:27:31.728Z,-1.09
2017-02-09T07:28:40.679Z,-1.09
2017-02-09T07:29:49.716Z,-1.05
2017-02-09T07:30:58.661Z,-0.97
2017-02-09T07:32:07.607Z,-1.07
2017-02-09T07:33:16.553Z,-1.01
2017-02-09T07:34:25.502Z,-0.94
2017-02-09T07:35:34.449Z,-1.09
2017-02-09T07:36:43.395Z,-0.95
2017-02-09T07:37:52.343Z,-0.92
2017-02-09T07:39:01.290Z,-0.95
2017-02-09T07:40:10.247Z,-0.86
2017-02-09T07:41:19.291Z,-0.85
2017-02-09T07:42:28.642Z,-0.82
2017-02-09T07:43:37.591Z,-0.85
2017-02-09T07:44:46.949Z,-0.91
2017-02-09T07:45:55.912Z,-0.91
2017-02-09T07:47:04.871Z,-0.78
2017-02-09T07:48:13.912Z,-0.91
2017-02-09T07:49:22.860Z,-0.89
2017-02-09T07:50:31.810Z,-0.85
2017-02-09T07:51:40.757Z,-0.79
2017-02-09T07:52:49.710Z,-0.79
2017-02-09T07:53:58.658Z,-0.73
2017-02-09T07:55:07.610Z,-0.67
2017-02-09T07:56:16.966Z,-0.67
2017-02-09T07:57:25.918Z,-0.61
2017-02-09T07:58:34.871Z,-0.7
2017-02-09T07:59:43.910Z,-0.73
2017-02-09T08:00:52.857Z,-0.65
2017-02-09T08:02:02.231Z,-0.64
2017-02-09T08:03:11.591Z,-0.58
2017-02-09T08:04:20.627Z,-0.72
2017-02-09T08:05:29.602Z,-0.61
2017-02-09T08:06:38.558Z,-0.64
2017-02-09T08:07:47.509Z,-0.57
2017-02-09T08:08:56.452Z,-0.57
2017-02-09T08:10:05.406Z,-0.58
2017-02-09T08:11:14.355Z,-0.52
2017-02-09T08:12:23.302Z,-0.52
2017-02-09T08:13:32.498Z,-0.55
2017-02-09T08:14:41.856Z,-0.51
2017-02-09T08:15:51.685Z,-0.61
2017-02-09T08:17:01.348Z,-0.67
2017-02-09T08:18:10.294Z,-0.62
2017-02-09T08:19:19.245Z,-0.57
2017-02-09T08:20:28.196Z,-0.49
2017-02-09T08:21:39.468Z,-0.6
2017-02-09T08:22:48.418Z,-0.78
2017-02-09T08:23:57.365Z,-0.78
2017-02-09T08:25:07.090Z,-0.91
2017-02-09T08:26:18.006Z,-0.89
2017-02-09T08:27:27.697Z,-1.04
2017-02-09T08:28:38.048Z,-1.19
2017-02-09T08:29:46.993Z,-1.12
2017-02-09T08:30:56.079Z,-1.13
2017-02-09T08:32:05.031Z,-1.04
2017-02-09T08:33:13.982Z,-1.04
2017-02-09T08:34:24.153Z,-0.97
2017-02-09T08:35:33.141Z,-0.92
2017-02-09T08:36:42.087Z,-0.86
2017-02-09T08:37:51.125Z,-0.76
2017-02-09T08:39:00.836Z,-0.73
2017-02-09T08:40:09.783Z,-0.62
2017-02-09T08:41:18.756Z,-0.65
2017-02-09T08:42:28.091Z,-0.58
2017-02-09T08:43:37.454Z,-0.47
2017-02-09T08:44:47.133Z,-0.42
2017-02-09T08:45:56.490Z,-0.36
2017-02-09T08:47:07.652Z,-0.31
2017-02-09T08:48:16.608Z,-0.37
2017-02-09T08:49:25.563Z,-0.33
2017-02-09T08:50:34.514Z,-0.36
2017-02-09T08:51:45.244Z,-0.26
2017-02-09T08:52:54.773Z,-0.26
2017-02-09T08:54:03.722Z,-0.25
2017-02-09T08:55:13.374Z,-0.28
2017-02-09T08:56:22.325Z,-0.22
2017-02-09T08:57:31.273Z,-0.23
2017-02-09T08:58:40.632Z,-0.14
2017-02-09T08:59:50.988Z,-0.18
2017-02-09T09:00:59.942Z,-0.21
2017-02-09T09:02:08.893Z,-0.11
2017-02-09T09:03:18.475Z,-0.11
2017-02-09T09:04:27.428Z,-0.08
2017-02-09T09:05:36.773Z,0.07
2017-02-09T09:06:45.818Z,-0.11
2017-02-09T09:07:55.586Z,-0.04
2017-02-09T09:09:04.532Z,-0.07
2017-02-09T09:10:13.569Z,-0.07
2017-02-09T09:11:22.518Z,0.08
2017-02-09T09:12:31.464Z,0.04
2017-02-09T09:13:40.500Z,0.02
2017-02-09T09:14:49.455Z,0.08
2017-02-09T09:15:58.402Z,0.03
2017-02-09T09:17:07.357Z,0.03
2017-02-09T09:18:16.803Z,-0.1
2017-02-09T09:19:25.754Z,-0.11
2017-02-09T09:20:34.704Z,0
2017-02-09T09:21:43.652Z,-0.07
2017-02-09T09:22:52.600Z,-0.05
2017-02-09T09:24:01.557Z,-0.11
2017-02-09T09:25:10.503Z,-0.11
2017-02-09T09:26:20.273Z,-0.21
2017-02-09T09:27:29.553Z,-0.03
2017-02-09T09:28:39.519Z,0.03
2017-02-09T09:29:48.503Z,0.07
2017-02-09T09:30:58.173Z,0.08
2017-02-09T09:32:07.127Z,0.11
2017-02-09T09:33:18.331Z,0.07
2017-02-09T09:34:28.012Z,0.02
2017-02-09T09:35:36.961Z,0.03
2017-02-09T09:36:46.659Z,0.03
2017-02-09T09:37:55.616Z,0.07
2017-02-09T09:39:04.642Z,0.14
2017-02-09T09:40:14.613Z,0.14
2017-02-09T09:41:24.030Z,0.13
2017-02-09T09:42:33.615Z,0.03
2017-02-09T09:43:43.238Z,-0.1
2017-02-09T09:44:52.898Z,-0.21
2017-02-09T09:46:01.854Z,-0.15
2017-02-09T09:47:11.453Z,-0.07
2017-02-09T09:48:20.537Z,-0.22
2017-02-09T09:49:30.077Z,-0.04
2017-02-09T09:50:39.024Z,-0.04
2017-02-09T09:51:47.973Z,-0.03
2017-02-09T09:52:57.235Z,-0.15
2017-02-09T09:54:07.251Z,-0.14
2017-02-09T09:55:16.992Z,-0.1
2017-02-09T09:56:26.316Z,-0.16
2017-02-09T09:57:35.970Z,0.04
2017-02-09T09:58:45.174Z,-0.07
2017-02-09T09:59:54.928Z,0.04
2017-02-09T10:01:03.875Z,0.1
2017-02-09T10:02:14.093Z,-0.03
2017-02-09T10:03:23.186Z,0.07
2017-02-09T10:04:32.221Z,0
2017-02-09T10:05:42.005Z,0.17
2017-02-09T10:06:53.517Z,0.11
2017-02-09T10:08:02.554Z,0.2
2017-02-09T10:09:11.504Z,0.2
2017-02-09T10:10:20.463Z,0.31
2017-02-09T10:11:29.412Z,0.24
2017-02-09T10:12:38.534Z,0.28
2017-02-09T10:13:47.483Z,0.29
2017-02-09T10:14:56.534Z,0.31
2017-02-09T10:16:05.488Z,0.42
2017-02-09T10:17:14.436Z,0.51
2017-02-09T10:18:23.392Z,0.32
2017-02-09T10:19:32.428Z,0.28
2017-02-09T10:20:41.784Z,0.21
2017-02-09T10:21:50.737Z,0.13
2017-02-09T10:22:59.684Z,0.23
2017-02-09T10:24:08.641Z,0.2
2017-02-09T10:25:17.588Z,0.2
2017-02-09T10:26:26.536Z,0.13
2017-02-09T10:27:35.486Z,0.1
2017-02-09T10:28:44.435Z,0.04
2017-02-09T10:29:53.387Z,0.08
2017-02-09T10:31:02.336Z,0.08
2017-02-09T10:32:11.376Z,0.11
2017-02-09T10:33:20.325Z,0.04
2017-02-09T10:34:29.272Z,0.02
2017-02-09T10:35:38.227Z,0
2017-02-09T10:36:47.270Z,0.08
2017-02-09T10:37:56.219Z,0
2017-02-09T10:39:05.169Z,0.02
2017-02-09T10:40:14.117Z,0.1
2017-02-09T10:41:23.062Z,0.17
2017-02-09T10:42:32.417Z,0.03
2017-02-09T10:43:41.450Z,-0.05
2017-02-09T10:44:50.395Z,-0.01
2017-02-09T10:45:59.439Z,0.04
2017-02-09T10:47:08.791Z,0.21
2017-02-09T10:48:17.744Z,0.26
2017-02-09T10:49:26.691Z,0.24
2017-02-09T10:50:35.636Z,0.23
2017-02-09T10:51:44.621Z,0.24
2017-02-09T10:52:53.571Z,0.26
2017-02-09T10:54:02.602Z,0.39
2017-02-09T10:55:11.548Z,0.42
2017-02-09T10:56:20.593Z,0.42
2017-02-09T10:57:29.631Z,0.49
2017-02-09T10:58:38.579Z,0.47
2017-02-09T10:59:47.526Z,0.55
2017-02-09T11:00:56.472Z,0.53
2017-02-09T11:02:05.422Z,0.61
2017-02-09T11:03:14.370Z,0.7
2017-02-09T11:04:23.322Z,0.72
2017-02-09T11:05:32.276Z,0.76
2017-02-09T11:06:41.227Z,0.76
2017-02-09T11:07:50.170Z,0.79
2017-02-09T11:08:59.118Z,0.86
2017-02-09T11:10:08.068Z,0.75
2017-02-09T11:11:17.018Z,0.79
2017-02-09T11:12:25.971Z,0.8
2017-02-09T11:13:34.928Z,0.87
2017-02-09T11:14:43.914Z,0.8
2017-02-09T11:15:52.952Z,0.8
2017-02-09T11:17:01.902Z,0.84
2017-02-09T11:18:10.847Z,0.86
2017-02-09T11:19:19.798Z,0.83
2017-02-09T11:20:28.747Z,0.84
2017-02-09T11:21:38.109Z,0.91
2017-02-09T11:22:47.053Z,0.88
2017-02-09T11:23:56.004Z,0.88
2017-02-09T11:25:04.954Z,0.9
2017-02-09T11:26:13.902Z,0.88
2017-02-09T11:27:22.854Z,0.93
2017-02-09T11:28:31.802Z,0.91
2017-02-09T11:29:40.754Z,0.98
2017-02-09T11:30:49.698Z,1.06
2017-02-09T11:31:58.648Z,1.12
2017-02-09T11:33:07.598Z,1.02
2017-02-09T11:34:16.633Z,0.9
2017-02-09T11:35:25.583Z,0.83
2017-02-09T11:36:34.529Z,0.87
2017-02-09T11:37:43.481Z,0.97
2017-02-09T11:38:52.435Z,1.05
2017-02-09T11:40:01.792Z,0.91
2017-02-09T11:41:10.741Z,0.94
2017-02-09T11:42:19.690Z,0.91
2017-02-09T11:43:28.640Z,0.86
2017-02-09T11:44:37.593Z,0.79
2017-02-09T11:45:46.546Z,0.69
2017-02-09T11:46:55.499Z,0.73
2017-02-09T11:48:04.455Z,0.7
2017-02-09T11:49:13.402Z,0.65
2017-02-09T11:50:22.348Z,0.61
2017-02-09T11:51:31.297Z,0.61
2017-02-09T11:52:40.239Z,0.65
2017-02-09T11:53:49.358Z,0.72
2017-02-09T11:54:58.305Z,0.75
2017-02-09T11:56:07.256Z,0.78
2017-02-09T11:57:16.230Z,0.75
2017-02-09T11:58:25.262Z,0.66
2017-02-09T11:59:34.209Z,0.7
2017-02-09T12:00:43.161Z,0.83
2017-02-09T12:01:52.110Z,0.93
2017-02-09T12:03:01.061Z,0.96
2017-02-09T12:04:10.001Z,0.96
2017-02-09T12:05:19.034Z,0.98
2017-02-09T12:06:27.982Z,0.94
2017-02-09T12:07:36.927Z,1.12
2017-02-09T12:08:45.874Z,1.18
2017-02-09T12:09:54.823Z,1.22
2017-02-09T12:11:03.773Z,1.26
2017-02-09T12:12:12.721Z,1.27
2017-02-09T12:13:21.675Z,1.23
2017-02-09T12:14:30.629Z,1.15
2017-02-09T12:15:39.577Z,1.12
2017-02-09T12:16:48.525Z,1.12
2017-02-09T12:17:57.472Z,1.16
2017-02-09T12:19:06.425Z,1.14
2017-02-09T12:20:15.371Z,1.11
2017-02-09T12:21:24.318Z,1.12
2017-02-09T12:22:33.269Z,1.26
2017-02-09T12:23:42.217Z,1.22
2017-02-09T12:24:51.161Z,1.2
2017-02-09T12:26:00.105Z,1.32
2017-02-09T12:27:09.462Z,1.23
2017-02-09T12:28:18.408Z,1.22
2017-02-09T12:29:27.355Z,1.22
2017-02-09T12:30:36.392Z,1.16
2017-02-09T12:31:45.340Z,1.24
2017-02-09T12:32:54.284Z,1.2
2017-02-09T12:34:03.236Z,1.18
2017-02-09T12:35:12.182Z,1.18
2017-02-09T12:36:21.134Z,1.14
2017-02-09T12:37:30.087Z,1.11
2017-02-09T12:38:39.039Z,1.11
2017-02-09T12:39:48.072Z,1.14
2017-02-09T12:40:57.017Z,1.11
2017-02-09T12:42:05.970Z,1.18
2017-02-09T12:43:14.919Z,1.2
2017-02-09T12:44:23.902Z,1.2
2017-02-09T12:45:32.850Z,1.15
2017-02-09T12:46:41.797Z,1.15
2017-02-09T12:47:50.782Z,0.97
2017-02-09T12:48:59.729Z,0.96
2017-02-09T12:50:08.687Z,1.06
2017-02-09T12:51:17.639Z,1.06
2017-02-09T12:52:26.587Z,1.14
2017-02-09T12:53:35.623Z,1.08
2017-02-09T12:54:44.574Z,1.12
2017-02-09T12:55:53.557Z,1.18
2017-02-09T12:57:02.507Z,1.18
2017-02-09T12:58:11.457Z,1.32
2017-02-09T12:59:20.406Z,1.18
2017-02-09T13:00:29.362Z,1.11
2017-02-09T13:01:38.715Z,0.98
2017-02-09T13:02:47.665Z,0.9
2017-02-09T13:03:56.610Z,0.9
2017-02-09T13:05:05.562Z,0.84
2017-02-09T13:06:14.594Z,0.84
2017-02-09T13:07:23.543Z,0.86
2017-02-09T13:08:32.900Z,0.9
2017-02-09T13:09:41.936Z,0.91
2017-02-09T13:10:50.884Z,0.94
2017-02-09T13:11:59.836Z,0.98
2017-02-09T13:13:08.789Z,0.97
2017-02-09T13:14:17.739Z,0.9
2017-02-09T13:15:26.693Z,1
2017-02-09T13:16:35.645Z,0.91
2017-02-09T13:17:44.679Z,0.86
2017-02-09T13:18:53.624Z,0.87
2017-02-09T13:20:02.661Z,0.84
2017-02-09T13:21:11.610Z,0.7
2017-02-09T13:22:20.578Z,0.83
2017-02-09T13:23:29.535Z,0.87
2017-02-09T13:24:38.485Z,0.83
2017-02-09T13:25:47.432Z,0.86
2017-02-09T13:26:56.384Z,0.86
2017-02-09T13:28:05.749Z,0.87
2017-02-09T13:29:14.700Z,0.86
2017-02-09T13:30:23.649Z,0.83
2017-02-09T13:31:32.600Z,0.78
2017-02-09T13:32:41.554Z,0.73
2017-02-09T13:33:50.505Z,0.75
2017-02-09T13:34:59.542Z,0.78
2017-02-09T13:36:08.905Z,0.78
2017-02-09T13:37:17.852Z,0.73
2017-02-09T13:38:26.799Z,0.73
2017-02-09T13:39:35.744Z,0.8
2017-02-09T13:40:44.689Z,0.7
2017-02-09T13:41:53.639Z,0.78
2017-02-09T13:43:02.588Z,0.8
2017-02-09T13:44:11.539Z,0.69
2017-02-09T13:45:20.492Z,0.78
2017-02-09T13:46:29.445Z,0.78
2017-02-09T13:47:38.394Z,0.73
2017-02-09T13:48:47.342Z,0.65
2017-02-09T13:49:56.290Z,0.55
2017-02-09T13:51:05.411Z,0.6
2017-02-09T13:52:14.368Z,0.42
2017-02-09T13:53:23.317Z,0.39
2017-02-09T13:54:32.265Z,0.28
2017-02-09T13:55:41.214Z,0.36
2017-02-09T13:56:50.166Z,0.51
2017-02-09T13:57:59.118Z,0.49
2017-02-09T13:59:08.478Z,0.53
2017-02-09T14:00:17.425Z,0.55
2017-02-09T14:01:26.373Z,0.53
2017-02-09T14:02:35.730Z,0.6
2017-02-09T14:03:44.679Z,0.46
2017-02-09T14:04:53.633Z,0.57
2017-02-09T14:06:02.579Z,0.36
2017-02-09T14:07:11.530Z,0.42
2017-02-09T14:08:20.568Z,0.44
2017-02-09T14:09:29.515Z,0.35
2017-02-09T14:10:38.460Z,0.39
2017-02-09T14:11:47.496Z,0.38
2017-02-09T14:12:56.441Z,0.33
2017-02-09T14:14:05.393Z,0.29
2017-02-09T14:15:14.343Z,0.26
2017-02-09T14:16:23.374Z,0.39
2017-02-09T14:17:32.322Z,0.42
2017-02-09T14:18:41.274Z,0.39
2017-02-09T14:19:50.311Z,0.28
2017-02-09T14:20:59.668Z,0.36
2017-02-09T14:22:08.619Z,0.31
2017-02-09T14:23:17.568Z,0.29
2017-02-09T14:24:26.516Z,0.24
2017-02-09T14:25:35.462Z,0.2
2017-02-09T14:26:44.410Z,0.33
2017-02-09T14:27:53.450Z,0.32
2017-02-09T14:29:02.398Z,0.24
2017-02-09T14:30:11.344Z,0.33
2017-02-09T14:31:20.291Z,0.29
2017-02-09T14:32:29.235Z,0.29
2017-02-09T14:33:38.281Z,0.35
2017-02-09T14:34:47.228Z,0.29
2017-02-09T14:35:56.263Z,0.24
2017-02-09T14:37:05.211Z,0.26
2017-02-09T14:38:14.158Z,0.24
2017-02-09T14:39:23.192Z,0.26
2017-02-09T14:40:32.138Z,0.31
2017-02-09T14:41:41.576Z,0.33
2017-02-09T14:42:50.612Z,0.24
2017-02-09T14:43:59.564Z,0.28
2017-02-09T14:45:08.512Z,0.35
2017-02-09T14:46:17.548Z,0.32
2017-02-09T14:47:26.494Z,0.29
2017-02-09T14:48:35.437Z,0.24
2017-02-09T14:49:44.380Z,0.24
2017-02-09T14:50:53.734Z,0.26
2017-02-09T14:52:02.681Z,0.17
2017-02-09T14:53:11.627Z,0.18
2017-02-09T14:54:20.665Z,0.15
2017-02-09T14:55:29.622Z,0.2
2017-02-09T14:56:38.568Z,0.29
2017-02-09T14:57:47.518Z,0.24
2017-02-09T14:58:56.557Z,0.42
2017-02-09T15:00:05.916Z,0.41
2017-02-09T15:01:14.888Z,0.46
2017-02-09T15:02:23.836Z,0.39